sensor_id;sensor_type;location;lat;lon;timestamp;P1;durP1;ratioP1;P2;durP2;ratioP2
75050;SDS011;63628;47.656;11.310;2023-06-10T00:00:29;3.15;;;2.85;;
75050;SDS011;63628;47.656;11.310;2023-06-10T00:02:58;4.45;;;3.13;;
75050;SDS011;63628;47.656;11.310;2023-06-10T00:05:26;3.45;;;3.15;;
75050;SDS011;63628;47.656;11.310;2023-06-10T00:07:56;3.05;;;2.83;;
75050;SDS011;63628;47.656;11.310;2023-06-10T00:10:23;3.75;;;3.45;;
75050;SDS011;63628;47.656;11.310;2023-06-10T00:15:20;3.50;;;3.08;;
75050;SDS011;63628;47.656;11.310;2023-06-10T00:17:47;3.70;;;3.40;;
75050;SDS011;63628;47.656;11.310;2023-06-10T00:20:13;3.70;;;3.30;;
75050;SDS011;63628;47.656;11.310;2023-06-10T00:22:40;4.20;;;3.20;;
75050;SDS011;63628;47.656;11.310;2023-06-10T00:25:08;3.42;;;3.13;;
75050;SDS011;63628;47.656;11.310;2023-06-10T00:27:37;3.28;;;2.67;;
75050;SDS011;63628;47.656;11.310;2023-06-10T00:30:05;3.25;;;2.90;;
75050;SDS011;63628;47.656;11.310;2023-06-10T00:32:33;3.60;;;3.30;;
75050;SDS011;63628;47.656;11.310;2023-06-10T00:35:00;5.32;;;3.25;;
75050;SDS011;63628;47.656;11.310;2023-06-10T00:37:27;3.38;;;3.08;;
75050;SDS011;63628;47.656;11.310;2023-06-10T00:39:55;3.15;;;2.85;;
75050;SDS011;63628;47.656;11.310;2023-06-10T00:42:22;3.15;;;2.85;;
75050;SDS011;63628;47.656;11.310;2023-06-10T00:44:50;3.58;;;3.28;;
75050;SDS011;63628;47.656;11.310;2023-06-10T00:47:18;3.80;;;3.40;;
75050;SDS011;63628;47.656;11.310;2023-06-10T00:49:45;3.30;;;3.00;;
75050;SDS011;63628;47.656;11.310;2023-06-10T00:52:12;4.25;;;2.92;;
75050;SDS011;63628;47.656;11.310;2023-06-10T00:54:40;3.40;;;3.03;;
75050;SDS011;63628;47.656;11.310;2023-06-10T00:57:07;3.53;;;3.22;;
75050;SDS011;63628;47.656;11.310;2023-06-10T00:59:34;3.08;;;2.78;;
75050;SDS011;63628;47.656;11.310;2023-06-10T01:02:03;3.55;;;3.25;;
75050;SDS011;63628;47.656;11.310;2023-06-10T01:04:32;3.20;;;2.90;;
75050;SDS011;63628;47.656;11.310;2023-06-10T01:07:00;3.72;;;2.95;;
75050;SDS011;63628;47.656;11.310;2023-06-10T01:09:38;3.55;;;3.08;;
75050;SDS011;63628;47.656;11.310;2023-06-10T01:12:12;3.22;;;2.92;;
75050;SDS011;63628;47.656;11.310;2023-06-10T01:14:45;3.42;;;2.97;;
75050;SDS011;63628;47.656;11.310;2023-06-10T01:17:15;3.65;;;3.25;;
75050;SDS011;63628;47.656;11.310;2023-06-10T01:19:44;3.90;;;3.50;;
75050;SDS011;63628;47.656;11.310;2023-06-10T01:22:23;3.97;;;3.40;;
75050;SDS011;63628;47.656;11.310;2023-06-10T01:24:50;3.42;;;3.13;;
75050;SDS011;63628;47.656;11.310;2023-06-10T01:27:16;3.40;;;3.10;;
75050;SDS011;63628;47.656;11.310;2023-06-10T01:29:49;3.75;;;3.40;;
75050;SDS011;63628;47.656;11.310;2023-06-10T01:32:21;3.90;;;3.00;;
75050;SDS011;63628;47.656;11.310;2023-06-10T01:34:53;4.10;;;3.38;;
75050;SDS011;63628;47.656;11.310;2023-06-10T01:37:23;3.45;;;3.15;;
75050;SDS011;63628;47.656;11.310;2023-06-10T01:39:53;3.97;;;3.58;;
75050;SDS011;63628;47.656;11.310;2023-06-10T01:42:23;3.92;;;3.53;;
75050;SDS011;63628;47.656;11.310;2023-06-10T01:44:51;3.42;;;3.10;;
75050;SDS011;63628;47.656;11.310;2023-06-10T01:47:17;3.92;;;3.22;;
75050;SDS011;63628;47.656;11.310;2023-06-10T01:49:44;3.33;;;3.03;;
75050;SDS011;63628;47.656;11.310;2023-06-10T01:52:11;3.38;;;3.08;;
75050;SDS011;63628;47.656;11.310;2023-06-10T01:54:39;3.60;;;3.20;;
75050;SDS011;63628;47.656;11.310;2023-06-10T01:57:06;4.07;;;3.20;;
75050;SDS011;63628;47.656;11.310;2023-06-10T01:59:33;3.72;;;3.42;;
75050;SDS011;63628;47.656;11.310;2023-06-10T02:01:59;3.72;;;3.42;;
75050;SDS011;63628;47.656;11.310;2023-06-10T02:04:26;4.65;;;3.78;;
75050;SDS011;63628;47.656;11.310;2023-06-10T02:06:53;3.45;;;3.15;;
75050;SDS011;63628;47.656;11.310;2023-06-10T02:09:19;3.78;;;3.40;;
75050;SDS011;63628;47.656;11.310;2023-06-10T02:11:47;4.43;;;4.03;;
75050;SDS011;63628;47.656;11.310;2023-06-10T02:14:14;3.90;;;2.92;;
75050;SDS011;63628;47.656;11.310;2023-06-10T02:16:41;3.40;;;3.10;;
75050;SDS011;63628;47.656;11.310;2023-06-10T02:19:07;4.25;;;3.13;;
75050;SDS011;63628;47.656;11.310;2023-06-10T02:21:34;3.78;;;3.47;;
75050;SDS011;63628;47.656;11.310;2023-06-10T02:24:01;4.07;;;3.67;;
75050;SDS011;63628;47.656;11.310;2023-06-10T02:26:28;3.40;;;3.10;;
75050;SDS011;63628;47.656;11.310;2023-06-10T02:28:56;3.53;;;3.22;;
75050;SDS011;63628;47.656;11.310;2023-06-10T02:31:23;3.55;;;3.25;;
75050;SDS011;63628;47.656;11.310;2023-06-10T02:33:51;3.67;;;3.38;;
75050;SDS011;63628;47.656;11.310;2023-06-10T02:36:18;3.80;;;3.40;;
75050;SDS011;63628;47.656;11.310;2023-06-10T02:38:44;3.90;;;3.55;;
75050;SDS011;63628;47.656;11.310;2023-06-10T02:41:11;4.80;;;3.42;;
75050;SDS011;63628;47.656;11.310;2023-06-10T02:43:38;4.00;;;3.58;;
75050;SDS011;63628;47.656;11.310;2023-06-10T02:46:07;3.63;;;3.33;;
75050;SDS011;63628;47.656;11.310;2023-06-10T02:48:40;3.90;;;3.50;;
75050;SDS011;63628;47.656;11.310;2023-06-10T02:51:08;3.85;;;3.55;;
75050;SDS011;63628;47.656;11.310;2023-06-10T02:53:35;4.18;;;3.78;;
75050;SDS011;63628;47.656;11.310;2023-06-10T02:56:02;4.18;;;3.78;;
75050;SDS011;63628;47.656;11.310;2023-06-10T02:58:29;3.47;;;3.17;;
75050;SDS011;63628;47.656;11.310;2023-06-10T03:00:56;4.10;;;3.70;;
75050;SDS011;63628;47.656;11.310;2023-06-10T03:03:24;4.28;;;3.88;;
75050;SDS011;63628;47.656;11.310;2023-06-10T03:05:52;4.05;;;3.65;;
75050;SDS011;63628;47.656;11.310;2023-06-10T03:08:18;4.10;;;3.55;;
75050;SDS011;63628;47.656;11.310;2023-06-10T03:10:45;4.38;;;3.50;;
75050;SDS011;63628;47.656;11.310;2023-06-10T03:13:11;5.57;;;4.05;;
75050;SDS011;63628;47.656;11.310;2023-06-10T03:15:38;3.60;;;3.30;;
75050;SDS011;63628;47.656;11.310;2023-06-10T03:18:07;4.27;;;3.43;;
75050;SDS011;63628;47.656;11.310;2023-06-10T03:20:35;3.85;;;3.50;;
75050;SDS011;63628;47.656;11.310;2023-06-10T03:23:03;5.63;;;4.20;;
75050;SDS011;63628;47.656;11.310;2023-06-10T03:25:31;4.93;;;3.78;;
75050;SDS011;63628;47.656;11.310;2023-06-10T03:27:58;4.95;;;4.25;;
75050;SDS011;63628;47.656;11.310;2023-06-10T03:30:25;3.60;;;3.30;;
75050;SDS011;63628;47.656;11.310;2023-06-10T03:32:51;3.63;;;3.33;;
75050;SDS011;63628;47.656;11.310;2023-06-10T03:35:18;4.50;;;3.50;;
75050;SDS011;63628;47.656;11.310;2023-06-10T03:37:47;3.97;;;3.38;;
75050;SDS011;63628;47.656;11.310;2023-06-10T03:40:13;3.60;;;3.20;;
75050;SDS011;63628;47.656;11.310;2023-06-10T03:42:40;4.22;;;3.33;;
75050;SDS011;63628;47.656;11.310;2023-06-10T03:45:07;3.35;;;3.05;;
75050;SDS011;63628;47.656;11.310;2023-06-10T03:47:36;4.03;;;3.63;;
75050;SDS011;63628;47.656;11.310;2023-06-10T03:50:04;3.63;;;3.33;;
75050;SDS011;63628;47.656;11.310;2023-06-10T03:52:31;3.70;;;3.40;;
75050;SDS011;63628;47.656;11.310;2023-06-10T03:54:59;4.40;;;4.00;;
75050;SDS011;63628;47.656;11.310;2023-06-10T03:57:26;3.78;;;3.38;;
75050;SDS011;63628;47.656;11.310;2023-06-10T03:59:53;3.80;;;3.47;;
75050;SDS011;63628;47.656;11.310;2023-06-10T04:02:20;3.60;;;3.30;;
75050;SDS011;63628;47.656;11.310;2023-06-10T04:04:47;3.80;;;3.50;;
75050;SDS011;63628;47.656;11.310;2023-06-10T04:07:14;4.78;;;3.97;;
75050;SDS011;63628;47.656;11.310;2023-06-10T04:09:41;3.55;;;3.25;;
75050;SDS011;63628;47.656;11.310;2023-06-10T04:12:10;4.00;;;3.60;;
75050;SDS011;63628;47.656;11.310;2023-06-10T04:14:37;4.20;;;3.78;;
75050;SDS011;63628;47.656;11.310;2023-06-10T04:17:04;4.07;;;3.63;;
75050;SDS011;63628;47.656;11.310;2023-06-10T04:19:34;4.40;;;3.90;;
75050;SDS011;63628;47.656;11.310;2023-06-10T04:22:01;4.75;;;4.22;;
75050;SDS011;63628;47.656;11.310;2023-06-10T04:24:30;4.18;;;3.78;;
75050;SDS011;63628;47.656;11.310;2023-06-10T04:26:56;6.20;;;4.55;;
75050;SDS011;63628;47.656;11.310;2023-06-10T04:29:25;4.50;;;3.47;;
75050;SDS011;63628;47.656;11.310;2023-06-10T04:31:51;4.30;;;3.90;;
75050;SDS011;63628;47.656;11.310;2023-06-10T04:34:19;7.07;;;4.88;;
75050;SDS011;63628;47.656;11.310;2023-06-10T04:36:46;3.88;;;3.55;;
75050;SDS011;63628;47.656;11.310;2023-06-10T04:39:13;3.67;;;3.35;;
75050;SDS011;63628;47.656;11.310;2023-06-10T04:41:40;4.22;;;3.83;;
75050;SDS011;63628;47.656;11.310;2023-06-10T04:44:07;3.95;;;3.53;;
75050;SDS011;63628;47.656;11.310;2023-06-10T04:46:35;3.88;;;3.47;;
75050;SDS011;63628;47.656;11.310;2023-06-10T04:49:02;4.00;;;3.60;;
75050;SDS011;63628;47.656;11.310;2023-06-10T04:51:28;3.70;;;3.40;;
75050;SDS011;63628;47.656;11.310;2023-06-10T04:53:55;3.95;;;3.35;;
75050;SDS011;63628;47.656;11.310;2023-06-10T04:56:22;4.05;;;3.47;;
75050;SDS011;63628;47.656;11.310;2023-06-10T04:58:49;6.18;;;4.88;;
75050;SDS011;63628;47.656;11.310;2023-06-10T05:01:16;6.32;;;4.95;;
75050;SDS011;63628;47.656;11.310;2023-06-10T05:03:44;4.20;;;3.65;;
75050;SDS011;63628;47.656;11.310;2023-06-10T05:06:11;5.10;;;3.80;;
75050;SDS011;63628;47.656;11.310;2023-06-10T05:08:37;5.85;;;4.93;;
75050;SDS011;63628;47.656;11.310;2023-06-10T05:11:04;5.20;;;4.53;;
75050;SDS011;63628;47.656;11.310;2023-06-10T05:13:32;6.50;;;5.45;;
75050;SDS011;63628;47.656;11.310;2023-06-10T05:15:59;6.10;;;4.97;;
75050;SDS011;63628;47.656;11.310;2023-06-10T05:18:26;6.30;;;5.32;;
75050;SDS011;63628;47.656;11.310;2023-06-10T05:20:54;8.77;;;5.75;;
75050;SDS011;63628;47.656;11.310;2023-06-10T05:23:21;7.05;;;6.07;;
75050;SDS011;63628;47.656;11.310;2023-06-10T05:25:48;6.78;;;5.93;;
75050;SDS011;63628;47.656;11.310;2023-06-10T05:28:15;6.50;;;5.90;;
75050;SDS011;63628;47.656;11.310;2023-06-10T05:30:42;6.47;;;5.88;;
75050;SDS011;63628;47.656;11.310;2023-06-10T05:33:09;4.43;;;4.03;;
75050;SDS011;63628;47.656;11.310;2023-06-10T05:35:36;4.57;;;3.80;;
75050;SDS011;63628;47.656;11.310;2023-06-10T05:38:04;6.63;;;5.97;;
75050;SDS011;63628;47.656;11.310;2023-06-10T05:40:31;7.60;;;5.57;;
75050;SDS011;63628;47.656;11.310;2023-06-10T05:42:58;6.82;;;6.10;;
75050;SDS011;63628;47.656;11.310;2023-06-10T05:45:25;7.95;;;5.93;;
75050;SDS011;63628;47.656;11.310;2023-06-10T05:47:52;5.95;;;5.32;;
75050;SDS011;63628;47.656;11.310;2023-06-10T05:50:19;7.00;;;5.93;;
75050;SDS011;63628;47.656;11.310;2023-06-10T05:52:46;7.47;;;5.78;;
75050;SDS011;63628;47.656;11.310;2023-06-10T05:55:14;7.35;;;5.43;;
75050;SDS011;63628;47.656;11.310;2023-06-10T05:57:41;5.70;;;4.88;;
75050;SDS011;63628;47.656;11.310;2023-06-10T06:00:09;5.85;;;4.20;;
75050;SDS011;63628;47.656;11.310;2023-06-10T06:02:36;7.88;;;5.72;;
75050;SDS011;63628;47.656;11.310;2023-06-10T06:05:03;6.05;;;5.25;;
75050;SDS011;63628;47.656;11.310;2023-06-10T06:07:30;6.03;;;5.25;;
75050;SDS011;63628;47.656;11.310;2023-06-10T06:09:57;8.50;;;5.72;;
75050;SDS011;63628;47.656;11.310;2023-06-10T06:12:25;5.88;;;5.05;;
75050;SDS011;63628;47.656;11.310;2023-06-10T06:14:52;6.93;;;5.45;;
75050;SDS011;63628;47.656;11.310;2023-06-10T06:17:19;7.82;;;6.07;;
75050;SDS011;63628;47.656;11.310;2023-06-10T06:19:46;5.22;;;4.72;;
75050;SDS011;63628;47.656;11.310;2023-06-10T06:22:14;6.05;;;5.30;;
75050;SDS011;63628;47.656;11.310;2023-06-10T06:24:41;6.55;;;5.15;;
75050;SDS011;63628;47.656;11.310;2023-06-10T06:27:08;6.85;;;5.57;;
75050;SDS011;63628;47.656;11.310;2023-06-10T06:29:36;6.32;;;5.53;;
75050;SDS011;63628;47.656;11.310;2023-06-10T06:32:03;6.43;;;5.40;;
75050;SDS011;63628;47.656;11.310;2023-06-10T06:34:30;6.07;;;5.47;;
75050;SDS011;63628;47.656;11.310;2023-06-10T06:36:58;7.20;;;5.32;;
75050;SDS011;63628;47.656;11.310;2023-06-10T06:39:25;5.00;;;4.28;;
75050;SDS011;63628;47.656;11.310;2023-06-10T06:41:52;7.20;;;5.25;;
75050;SDS011;63628;47.656;11.310;2023-06-10T06:44:19;5.95;;;5.35;;
75050;SDS011;63628;47.656;11.310;2023-06-10T06:46:47;6.30;;;5.28;;
75050;SDS011;63628;47.656;11.310;2023-06-10T06:49:14;7.10;;;5.72;;
75050;SDS011;63628;47.656;11.310;2023-06-10T06:51:41;5.70;;;5.20;;
75050;SDS011;63628;47.656;11.310;2023-06-10T06:54:08;6.57;;;5.25;;
75050;SDS011;63628;47.656;11.310;2023-06-10T06:56:35;5.82;;;5.22;;
75050;SDS011;63628;47.656;11.310;2023-06-10T06:59:02;5.95;;;4.95;;
75050;SDS011;63628;47.656;11.310;2023-06-10T07:01:28;6.25;;;5.65;;
75050;SDS011;63628;47.656;11.310;2023-06-10T07:03:57;8.32;;;5.55;;
75050;SDS011;63628;47.656;11.310;2023-06-10T07:06:24;7.47;;;5.30;;
75050;SDS011;63628;47.656;11.310;2023-06-10T07:08:52;5.20;;;4.70;;
75050;SDS011;63628;47.656;11.310;2023-06-10T07:11:18;5.30;;;4.80;;
75050;SDS011;63628;47.656;11.310;2023-06-10T07:13:45;4.47;;;4.07;;
75050;SDS011;63628;47.656;11.310;2023-06-10T07:16:12;6.00;;;5.38;;
75050;SDS011;63628;47.656;11.310;2023-06-10T07:18:39;8.00;;;5.60;;
75050;SDS011;63628;47.656;11.310;2023-06-10T07:21:07;6.80;;;5.32;;
75050;SDS011;63628;47.656;11.310;2023-06-10T07:23:34;5.70;;;5.10;;
75050;SDS011;63628;47.656;11.310;2023-06-10T07:26:01;6.13;;;5.53;;
75050;SDS011;63628;47.656;11.310;2023-06-10T07:28:27;6.63;;;5.75;;
75050;SDS011;63628;47.656;11.310;2023-06-10T07:30:54;6.38;;;5.43;;
75050;SDS011;63628;47.656;11.310;2023-06-10T07:33:21;6.60;;;5.35;;
75050;SDS011;63628;47.656;11.310;2023-06-10T07:35:48;7.93;;;6.22;;
75050;SDS011;63628;47.656;11.310;2023-06-10T07:38:16;6.35;;;5.35;;
75050;SDS011;63628;47.656;11.310;2023-06-10T07:40:43;6.37;;;5.40;;
75050;SDS011;63628;47.656;11.310;2023-06-10T07:43:10;7.47;;;5.63;;
75050;SDS011;63628;47.656;11.310;2023-06-10T07:45:37;5.88;;;5.10;;
75050;SDS011;63628;47.656;11.310;2023-06-10T07:48:05;5.88;;;5.28;;
75050;SDS011;63628;47.656;11.310;2023-06-10T07:50:32;6.68;;;5.78;;
75050;SDS011;63628;47.656;11.310;2023-06-10T07:52:59;6.97;;;5.65;;
75050;SDS011;63628;47.656;11.310;2023-06-10T07:55:27;9.38;;;5.72;;
75050;SDS011;63628;47.656;11.310;2023-06-10T07:57:54;5.93;;;4.97;;
75050;SDS011;63628;47.656;11.310;2023-06-10T08:00:21;7.30;;;5.78;;
75050;SDS011;63628;47.656;11.310;2023-06-10T08:02:48;6.15;;;5.55;;
75050;SDS011;63628;47.656;11.310;2023-06-10T08:05:15;8.73;;;5.40;;
75050;SDS011;63628;47.656;11.310;2023-06-10T08:07:42;6.28;;;5.32;;
75050;SDS011;63628;47.656;11.310;2023-06-10T08:10:09;7.25;;;5.82;;
75050;SDS011;63628;47.656;11.310;2023-06-10T08:12:38;8.18;;;5.82;;
75050;SDS011;63628;47.656;11.310;2023-06-10T08:15:05;7.63;;;5.70;;
75050;SDS011;63628;47.656;11.310;2023-06-10T08:17:33;8.88;;;5.20;;
75050;SDS011;63628;47.656;11.310;2023-06-10T08:20:00;5.68;;;5.10;;
75050;SDS011;63628;47.656;11.310;2023-06-10T08:22:27;6.30;;;4.82;;
75050;SDS011;63628;47.656;11.310;2023-06-10T08:24:55;5.95;;;5.00;;
75050;SDS011;63628;47.656;11.310;2023-06-10T08:27:22;6.88;;;5.30;;
75050;SDS011;63628;47.656;11.310;2023-06-10T08:29:50;5.85;;;5.35;;
75050;SDS011;63628;47.656;11.310;2023-06-10T08:32:17;5.32;;;4.82;;
75050;SDS011;63628;47.656;11.310;2023-06-10T08:34:44;9.30;;;5.22;;
75050;SDS011;63628;47.656;11.310;2023-06-10T08:37:10;6.90;;;5.05;;
75050;SDS011;63628;47.656;11.310;2023-06-10T08:39:37;6.32;;;5.53;;
75050;SDS011;63628;47.656;11.310;2023-06-10T08:42:05;5.07;;;4.57;;
75050;SDS011;63628;47.656;11.310;2023-06-10T08:44:38;5.70;;;5.10;;
75050;SDS011;63628;47.656;11.310;2023-06-10T08:47:08;5.63;;;5.00;;
75050;SDS011;63628;47.656;11.310;2023-06-10T08:49:41;8.20;;;5.45;;
75050;SDS011;63628;47.656;11.310;2023-06-10T08:52:11;7.65;;;4.80;;
75050;SDS011;63628;47.656;11.310;2023-06-10T08:54:42;8.93;;;5.38;;
75050;SDS011;63628;47.656;11.310;2023-06-10T08:59:38;9.27;;;4.88;;
75050;SDS011;63628;47.656;11.310;2023-06-10T09:02:07;7.68;;;5.05;;
75050;SDS011;63628;47.656;11.310;2023-06-10T09:04:34;5.95;;;5.35;;
75050;SDS011;63628;47.656;11.310;2023-06-10T09:07:02;6.38;;;5.10;;
75050;SDS011;63628;47.656;11.310;2023-06-10T09:09:30;5.72;;;4.50;;
75050;SDS011;63628;47.656;11.310;2023-06-10T09:11:58;6.38;;;5.05;;
75050;SDS011;63628;47.656;11.310;2023-06-10T09:14:25;5.97;;;4.57;;
75050;SDS011;63628;47.656;11.310;2023-06-10T09:16:52;5.95;;;5.35;;
75050;SDS011;63628;47.656;11.310;2023-06-10T09:19:24;6.05;;;4.40;;
75050;SDS011;63628;47.656;11.310;2023-06-10T09:21:53;6.20;;;5.60;;
75050;SDS011;63628;47.656;11.310;2023-06-10T09:24:20;5.60;;;4.97;;
75050;SDS011;63628;47.656;11.310;2023-06-10T09:26:48;5.30;;;4.80;;
75050;SDS011;63628;47.656;11.310;2023-06-10T09:29:17;8.90;;;5.35;;
75050;SDS011;63628;47.656;11.310;2023-06-10T09:31:44;6.07;;;5.45;;
75050;SDS011;63628;47.656;11.310;2023-06-10T09:34:11;5.65;;;5.10;;
75050;SDS011;63628;47.656;11.310;2023-06-10T09:36:40;6.57;;;5.88;;
75050;SDS011;63628;47.656;11.310;2023-06-10T09:39:13;5.60;;;5.03;;
75050;SDS011;63628;47.656;11.310;2023-06-10T09:41:42;6.75;;;6.13;;
75050;SDS011;63628;47.656;11.310;2023-06-10T09:44:11;6.28;;;5.15;;
75050;SDS011;63628;47.656;11.310;2023-06-10T09:46:38;5.28;;;4.78;;
75050;SDS011;63628;47.656;11.310;2023-06-10T09:49:05;6.43;;;5.18;;
75050;SDS011;63628;47.656;11.310;2023-06-10T09:51:32;6.57;;;5.88;;
75050;SDS011;63628;47.656;11.310;2023-06-10T09:54:00;8.25;;;5.53;;
75050;SDS011;63628;47.656;11.310;2023-06-10T09:56:35;11.35;;;5.65;;
75050;SDS011;63628;47.656;11.310;2023-06-10T09:59:02;6.30;;;5.53;;
75050;SDS011;63628;47.656;11.310;2023-06-10T10:01:32;6.28;;;5.53;;
75050;SDS011;63628;47.656;11.310;2023-06-10T10:03:59;6.10;;;5.50;;
75050;SDS011;63628;47.656;11.310;2023-06-10T10:06:27;5.85;;;5.20;;
75050;SDS011;63628;47.656;11.310;2023-06-10T10:08:55;5.97;;;5.38;;
75050;SDS011;63628;47.656;11.310;2023-06-10T10:11:24;6.72;;;5.95;;
75050;SDS011;63628;47.656;11.310;2023-06-10T10:13:52;6.20;;;5.60;;
75050;SDS011;63628;47.656;11.310;2023-06-10T10:16:20;6.55;;;5.53;;
75050;SDS011;63628;47.656;11.310;2023-06-10T10:18:51;5.78;;;5.18;;
75050;SDS011;63628;47.656;11.310;2023-06-10T10:21:22;9.00;;;6.18;;
75050;SDS011;63628;47.656;11.310;2023-06-10T10:23:53;7.05;;;6.13;;
75050;SDS011;63628;47.656;11.310;2023-06-10T10:26:30;6.40;;;5.60;;
75050;SDS011;63628;47.656;11.310;2023-06-10T10:29:02;8.23;;;5.68;;
75050;SDS011;63628;47.656;11.310;2023-06-10T10:31:36;5.80;;;5.28;;
75050;SDS011;63628;47.656;11.310;2023-06-10T10:34:06;10.73;;;5.97;;
75050;SDS011;63628;47.656;11.310;2023-06-10T10:36:35;6.38;;;5.57;;
75050;SDS011;63628;47.656;11.310;2023-06-10T10:39:03;7.78;;;5.85;;
75050;SDS011;63628;47.656;11.310;2023-06-10T10:41:32;6.45;;;5.53;;
75050;SDS011;63628;47.656;11.310;2023-06-10T10:44:00;5.43;;;4.93;;
75050;SDS011;63628;47.656;11.310;2023-06-10T10:46:27;8.15;;;5.95;;
75050;SDS011;63628;47.656;11.310;2023-06-10T10:48:56;7.05;;;5.40;;
75050;SDS011;63628;47.656;11.310;2023-06-10T10:51:25;5.80;;;5.20;;
75050;SDS011;63628;47.656;11.310;2023-06-10T10:54:10;6.13;;;5.50;;
75050;SDS011;63628;47.656;11.310;2023-06-10T10:56:39;7.05;;;5.10;;
75050;SDS011;63628;47.656;11.310;2023-06-10T10:59:06;6.80;;;6.13;;
75050;SDS011;63628;47.656;11.310;2023-06-10T11:01:39;6.18;;;5.30;;
75050;SDS011;63628;47.656;11.310;2023-06-10T11:04:07;6.25;;;5.10;;
75050;SDS011;63628;47.656;11.310;2023-06-10T11:06:34;5.85;;;5.20;;
75050;SDS011;63628;47.656;11.310;2023-06-10T11:09:02;7.05;;;5.22;;
75050;SDS011;63628;47.656;11.310;2023-06-10T11:11:53;6.28;;;5.15;;
75050;SDS011;63628;47.656;11.310;2023-06-10T11:14:26;9.68;;;5.43;;
75050;SDS011;63628;47.656;11.310;2023-06-10T11:16:56;6.32;;;5.32;;
75050;SDS011;63628;47.656;11.310;2023-06-10T11:19:33;5.88;;;5.25;;
75050;SDS011;63628;47.656;11.310;2023-06-10T11:22:01;5.55;;;5.05;;
75050;SDS011;63628;47.656;11.310;2023-06-10T11:24:29;5.60;;;5.10;;
75050;SDS011;63628;47.656;11.310;2023-06-10T11:29:58;5.30;;;4.80;;
75050;SDS011;63628;47.656;11.310;2023-06-10T11:32:44;8.45;;;4.90;;
75050;SDS011;63628;47.656;11.310;2023-06-10T11:35:12;6.60;;;5.03;;
75050;SDS011;63628;47.656;11.310;2023-06-10T11:37:38;6.47;;;4.63;;
75050;SDS011;63628;47.656;11.310;2023-06-10T11:40:06;6.63;;;4.80;;
75050;SDS011;63628;47.656;11.310;2023-06-10T11:42:35;5.38;;;4.82;;
75050;SDS011;63628;47.656;11.310;2023-06-10T11:45:05;10.07;;;4.93;;
75050;SDS011;63628;47.656;11.310;2023-06-10T11:47:35;7.25;;;5.15;;
75050;SDS011;63628;47.656;11.310;2023-06-10T11:50:01;6.22;;;4.20;;
75050;SDS011;63628;47.656;11.310;2023-06-10T11:52:31;6.95;;;4.80;;
75050;SDS011;63628;47.656;11.310;2023-06-10T11:55:00;4.97;;;4.47;;
75050;SDS011;63628;47.656;11.310;2023-06-10T11:57:27;7.85;;;5.13;;
75050;SDS011;63628;47.656;11.310;2023-06-10T11:59:55;5.05;;;4.55;;
75050;SDS011;63628;47.656;11.310;2023-06-10T12:02:22;6.90;;;4.38;;
75050;SDS011;63628;47.656;11.310;2023-06-10T12:04:49;4.95;;;4.45;;
75050;SDS011;63628;47.656;11.310;2023-06-10T12:07:18;5.68;;;4.57;;
75050;SDS011;63628;47.656;11.310;2023-06-10T12:09:46;4.72;;;3.72;;
75050;SDS011;63628;47.656;11.310;2023-06-10T12:12:13;5.65;;;4.10;;
75050;SDS011;63628;47.656;11.310;2023-06-10T12:14:53;4.47;;;4.00;;
75050;SDS011;63628;47.656;11.310;2023-06-10T12:17:35;5.03;;;4.30;;
75050;SDS011;63628;47.656;11.310;2023-06-10T12:20:04;4.80;;;4.35;;
75050;SDS011;63628;47.656;11.310;2023-06-10T12:22:36;4.32;;;3.92;;
75050;SDS011;63628;47.656;11.310;2023-06-10T12:25:07;4.57;;;3.88;;
75050;SDS011;63628;47.656;11.310;2023-06-10T12:27:35;4.95;;;4.03;;
75050;SDS011;63628;47.656;11.310;2023-06-10T12:30:05;4.60;;;3.95;;
75050;SDS011;63628;47.656;11.310;2023-06-10T12:32:36;4.25;;;3.70;;
75050;SDS011;63628;47.656;11.310;2023-06-10T12:35:05;5.13;;;4.32;;
75050;SDS011;63628;47.656;11.310;2023-06-10T12:37:33;3.78;;;3.45;;
75050;SDS011;63628;47.656;11.310;2023-06-10T12:40:00;4.72;;;4.25;;
75050;SDS011;63628;47.656;11.310;2023-06-10T12:42:29;5.60;;;4.30;;
75050;SDS011;63628;47.656;11.310;2023-06-10T12:44:57;6.10;;;4.10;;
75050;SDS011;63628;47.656;11.310;2023-06-10T12:47:31;4.20;;;3.72;;
75050;SDS011;63628;47.656;11.310;2023-06-10T12:50:01;4.47;;;4.03;;
75050;SDS011;63628;47.656;11.310;2023-06-10T12:52:29;4.90;;;4.30;;
75050;SDS011;63628;47.656;11.310;2023-06-10T12:54:56;3.75;;;3.45;;
75050;SDS011;63628;47.656;11.310;2023-06-10T12:57:23;5.22;;;3.65;;
75050;SDS011;63628;47.656;11.310;2023-06-10T12:59:49;4.43;;;3.88;;
75050;SDS011;63628;47.656;11.310;2023-06-10T13:02:18;4.95;;;3.95;;
75050;SDS011;63628;47.656;11.310;2023-06-10T13:04:51;6.13;;;4.13;;
75050;SDS011;63628;47.656;11.310;2023-06-10T13:07:18;5.40;;;3.75;;
75050;SDS011;63628;47.656;11.310;2023-06-10T13:09:45;5.45;;;4.13;;
75050;SDS011;63628;47.656;11.310;2023-06-10T13:12:15;4.25;;;3.85;;
75050;SDS011;63628;47.656;11.310;2023-06-10T13:14:52;4.68;;;4.22;;
75050;SDS011;63628;47.656;11.310;2023-06-10T13:17:20;4.85;;;4.18;;
75050;SDS011;63628;47.656;11.310;2023-06-10T13:19:47;5.97;;;4.10;;
75050;SDS011;63628;47.656;11.310;2023-06-10T13:22:16;9.23;;;4.53;;
75050;SDS011;63628;47.656;11.310;2023-06-10T13:24:43;5.35;;;3.40;;
75050;SDS011;63628;47.656;11.310;2023-06-10T13:27:10;3.95;;;3.50;;
75050;SDS011;63628;47.656;11.310;2023-06-10T13:29:37;3.88;;;3.47;;
75050;SDS011;63628;47.656;11.310;2023-06-10T13:32:04;3.38;;;3.08;;
75050;SDS011;63628;47.656;11.310;2023-06-10T13:34:31;6.15;;;3.67;;
75050;SDS011;63628;47.656;11.310;2023-06-10T13:36:58;5.35;;;4.85;;
75050;SDS011;63628;47.656;11.310;2023-06-10T13:39:26;5.03;;;3.72;;
75050;SDS011;63628;47.656;11.310;2023-06-10T13:41:54;5.28;;;3.60;;
75050;SDS011;63628;47.656;11.310;2023-06-10T13:44:21;4.65;;;3.85;;
75050;SDS011;63628;47.656;11.310;2023-06-10T13:46:47;3.92;;;3.53;;
75050;SDS011;63628;47.656;11.310;2023-06-10T13:49:15;3.88;;;3.47;;
75050;SDS011;63628;47.656;11.310;2023-06-10T13:51:42;5.15;;;3.53;;
75050;SDS011;63628;47.656;11.310;2023-06-10T13:54:09;3.60;;;3.30;;
75050;SDS011;63628;47.656;11.310;2023-06-10T13:56:38;7.13;;;3.50;;
75050;SDS011;63628;47.656;11.310;2023-06-10T13:59:05;3.75;;;3.42;;
75050;SDS011;63628;47.656;11.310;2023-06-10T14:01:31;5.50;;;3.60;;
75050;SDS011;63628;47.656;11.310;2023-06-10T14:03:58;4.43;;;3.97;;
75050;SDS011;63628;47.656;11.310;2023-06-10T14:06:25;4.22;;;3.65;;
75050;SDS011;63628;47.656;11.310;2023-06-10T14:08:52;3.30;;;3.00;;
75050;SDS011;63628;47.656;11.310;2023-06-10T14:11:20;3.47;;;3.17;;
75050;SDS011;63628;47.656;11.310;2023-06-10T14:13:48;4.38;;;3.60;;
75050;SDS011;63628;47.656;11.310;2023-06-10T14:16:15;4.22;;;3.35;;
75050;SDS011;63628;47.656;11.310;2023-06-10T14:18:42;5.07;;;3.80;;
75050;SDS011;63628;47.656;11.310;2023-06-10T14:21:08;4.53;;;3.88;;
75050;SDS011;63628;47.656;11.310;2023-06-10T14:23:35;3.95;;;3.60;;
75050;SDS011;63628;47.656;11.310;2023-06-10T14:26:02;3.70;;;3.40;;
75050;SDS011;63628;47.656;11.310;2023-06-10T14:28:29;4.82;;;3.63;;
75050;SDS011;63628;47.656;11.310;2023-06-10T14:30:57;3.50;;;3.20;;
75050;SDS011;63628;47.656;11.310;2023-06-10T14:33:24;6.38;;;3.58;;
75050;SDS011;63628;47.656;11.310;2023-06-10T14:35:50;4.60;;;3.22;;
75050;SDS011;63628;47.656;11.310;2023-06-10T14:38:17;5.00;;;3.40;;
75050;SDS011;63628;47.656;11.310;2023-06-10T14:40:45;4.30;;;3.17;;
75050;SDS011;63628;47.656;11.310;2023-06-10T14:43:12;5.85;;;3.25;;
75050;SDS011;63628;47.656;11.310;2023-06-10T14:45:39;5.32;;;3.58;;